METAR Formatted Surface Weather Observation
Issued by NWS

Home | Current Version | Previous Version | Text Only | Print | Product List | Glossary On
Versions: 1 2 3 4 5 6 7 8 9 10 11 12 13 14 15
000
SAUS45 KTWC 200653
MTRSAD
METAR KSAD 200651Z AUTO 34005KT 10SM CLR 13/04 A3007 RMK AO2 SLP148
T01330044 402500111



USA.gov is the U.S. government's official web portal to all federal, state and local government web resources and services.